createdAt,value
2022-09-02T00:05:38.441Z,54
2022-09-02T00:11:21.703Z,44
2022-09-02T00:17:02.559Z,54
2022-09-02T00:22:43.127Z,56
2022-09-02T00:28:24.566Z,58
2022-09-02T00:34:04.929Z,44
2022-09-02T00:39:45.112Z,56
2022-09-02T00:45:25.843Z,48
2022-09-02T00:51:07.653Z,48
2022-09-02T00:56:55.844Z,54
2022-09-02T01:02:36.360Z,56
2022-09-02T01:14:17.460Z,50
2022-09-02T01:19:57.460Z,52
2022-09-02T01:25:37.671Z,44
2022-09-02T01:31:18.894Z,46
2022-09-02T01:37:00.416Z,48
2022-09-02T01:48:22.257Z,56
2022-09-02T01:54:02.296Z,50
2022-09-02T01:59:43.812Z,40
2022-09-02T02:05:23.950Z,46
2022-09-02T02:11:04.159Z,56
2022-09-02T02:16:44.420Z,54
2022-09-02T02:22:24.733Z,48
2022-09-02T02:28:05.954Z,60
2022-09-02T02:33:46.522Z,48
2022-09-02T02:39:26.746Z,60
2022-09-02T02:45:07.148Z,56
2022-09-02T02:50:47.447Z,52
2022-09-02T02:56:27.787Z,56
2022-09-02T03:02:09.016Z,58
2022-09-02T03:07:49.919Z,56
2022-09-02T03:13:32.335Z,48
2022-09-02T03:24:52.824Z,48
2022-09-02T03:30:33.610Z,50
2022-09-02T03:36:14.318Z,44
2022-09-02T03:49:24.786Z,56
2022-09-02T03:55:07.044Z,46
2022-09-02T04:00:47.552Z,48
2022-09-02T04:06:33.222Z,50
2022-09-02T04:12:13.337Z,52
2022-09-02T04:17:54.038Z,54
2022-09-02T04:29:19.583Z,46
2022-09-02T04:35:02.246Z,42
2022-09-02T04:40:43.920Z,48
2022-09-02T04:46:35.721Z,52
2022-09-02T04:52:16.957Z,46
2022-09-02T04:57:57.477Z,46
2022-09-02T05:03:38.740Z,46
2022-09-02T05:09:20.013Z,50
2022-09-02T05:15:01.551Z,48
2022-09-02T05:20:43.110Z,58
2022-09-02T05:26:24.436Z,52
2022-09-02T05:32:04.948Z,52
2022-09-02T05:37:45.423Z,48
2022-09-02T05:48:27.443Z,50
2022-09-02T05:54:12.426Z,54
2022-09-02T05:59:53.626Z,48
2022-09-02T06:05:34.651Z,54
2022-09-02T06:11:15.486Z,56
2022-09-02T06:16:57.029Z,56
2022-09-02T06:22:38.634Z,40
2022-09-02T06:28:18.922Z,54
2022-09-02T06:34:03.781Z,52
2022-09-02T06:39:45.178Z,46
2022-09-02T06:45:26.038Z,50
2022-09-02T06:56:09.591Z,104
2022-09-02T07:01:51.902Z,54
2022-09-02T07:07:33.664Z,56
2022-09-02T07:13:20.622Z,52
2022-09-02T07:19:20.937Z,60
2022-09-02T07:25:02.133Z,56
2022-09-02T07:30:42.404Z,58
2022-09-02T07:36:23.002Z,54
2022-09-02T07:42:03.902Z,62
2022-09-02T07:47:43.883Z,60
2022-09-02T07:53:24.780Z,40
2022-09-02T07:59:05.536Z,22
2022-09-02T08:04:45.991Z,2
2022-09-02T08:10:26.617Z,12
2022-09-02T08:16:21.609Z,4
2022-09-02T08:22:02.956Z,28
2022-09-02T08:27:46.222Z,128
2022-09-02T08:33:27.588Z,28
2022-09-02T08:39:07.804Z,16
2022-09-02T08:44:54.567Z,22
2022-09-02T08:50:40.215Z,4
2022-09-02T08:56:20.362Z,4
2022-09-02T09:02:03.639Z,0
2022-09-02T09:07:44.031Z,6
2022-09-02T09:13:24.822Z,0
2022-09-02T09:19:09.307Z,0
2022-09-02T09:24:49.200Z,2
2022-09-02T09:30:30.458Z,2
2022-09-02T09:36:13.950Z,0
2022-09-02T09:41:54.350Z,0
2022-09-02T09:47:35.281Z,0
2022-09-02T09:53:17.933Z,2
2022-09-02T09:58:58.748Z,2
2022-09-02T10:04:44.605Z,2
2022-09-02T10:10:25.114Z,0
2022-09-02T10:16:06.021Z,2
2022-09-02T10:21:46.812Z,0
2022-09-02T10:27:27.667Z,2
2022-09-02T10:33:07.830Z,2
2022-09-02T10:38:48.735Z,2
2022-09-02T10:44:31.590Z,0
2022-09-02T10:50:11.902Z,0
2022-09-02T10:55:52.071Z,0
2022-09-02T11:01:32.280Z,4
2022-09-02T11:07:15.261Z,0
2022-09-02T11:12:55.851Z,0
2022-09-02T11:18:38.879Z,2
2022-09-02T11:30:05.134Z,2
2022-09-02T11:35:46.143Z,2
2022-09-02T11:41:38.499Z,6
2022-09-02T11:47:19.921Z,0
2022-09-02T11:53:00.296Z,0
2022-09-02T11:58:41.424Z,14
2022-09-02T12:05:03.176Z,8
2022-09-02T12:10:48.769Z,2
2022-09-02T12:16:30.562Z,2
2022-09-02T12:22:11.973Z,24
2022-09-02T12:27:52.989Z,8
2022-09-02T12:33:34.062Z,2
2022-09-02T12:39:16.571Z,4
2022-09-02T12:44:56.667Z,8
2022-09-02T12:50:36.609Z,18
2022-09-02T12:56:16.451Z,0
2022-09-02T13:07:37.281Z,6
2022-09-02T13:13:18.193Z,34
2022-09-02T13:18:58.888Z,0
2022-09-02T13:24:40.396Z,12
2022-09-02T13:30:20.567Z,32
2022-09-02T13:36:00.954Z,2
2022-09-02T13:41:41.040Z,0
2022-09-02T13:47:21.855Z,4
2022-09-02T13:54:23.510Z,4
2022-09-02T14:00:05.898Z,0
2022-09-02T14:05:48.822Z,0
2022-09-02T14:11:29.190Z,8
2022-09-02T14:17:09.648Z,4
2022-09-02T14:22:51.713Z,60
2022-09-02T14:28:32.725Z,58
2022-09-02T14:34:15.384Z,52
2022-09-02T14:39:55.726Z,56
2022-09-02T14:45:35.898Z,46
2022-09-02T14:51:16.209Z,52
2022-09-02T14:56:56.540Z,62
2022-09-02T15:08:03.262Z,64
2022-09-02T15:13:43.637Z,58
2022-09-02T15:19:23.809Z,68
2022-09-02T15:25:03.992Z,56
2022-09-02T15:30:44.538Z,68
2022-09-02T15:36:25.172Z,54
2022-09-02T15:42:05.086Z,54
2022-09-02T15:47:45.391Z,66
2022-09-02T15:53:25.519Z,60
2022-09-02T15:59:05.602Z,54
2022-09-02T16:04:45.718Z,52
2022-09-02T16:10:25.844Z,56
2022-09-02T16:16:05.981Z,62
2022-09-02T16:21:46.188Z,64
2022-09-02T16:27:26.310Z,56
2022-09-02T16:33:07.364Z,62
2022-09-02T16:38:47.516Z,56
2022-09-02T16:44:27.715Z,48
2022-09-02T16:50:08.072Z,50
2022-09-02T16:55:48.364Z,48
2022-09-02T17:01:33.213Z,52
2022-09-02T17:07:15.480Z,58
2022-09-02T17:12:55.575Z,54
2022-09-02T17:18:35.641Z,50
2022-09-02T17:24:15.886Z,54
2022-09-02T17:29:56.101Z,52
2022-09-02T17:35:36.514Z,54
2022-09-02T17:41:16.781Z,60
2022-09-02T17:46:56.974Z,62
2022-09-02T17:52:37.105Z,50
2022-09-02T17:58:18.620Z,60
2022-09-02T18:03:59.558Z,58
2022-09-02T18:09:40.374Z,56
2022-09-02T18:15:20.816Z,56
2022-09-02T18:21:01.249Z,56
2022-09-02T18:26:41.549Z,62
2022-09-02T18:32:28.107Z,52
2022-09-02T18:38:08.267Z,56
2022-09-02T18:43:48.649Z,52
2022-09-02T18:49:29.201Z,48
2022-09-02T18:55:09.318Z,58
2022-09-02T19:00:50.114Z,58
2022-09-02T19:06:30.757Z,48
2022-09-02T19:12:18.155Z,52
2022-09-02T19:18:19.109Z,54
2022-09-02T19:24:03.657Z,56
2022-09-02T19:29:43.649Z,46
2022-09-02T19:35:24.462Z,56
2022-09-02T19:41:05.282Z,58
2022-09-02T19:48:09.018Z,44
2022-09-02T19:53:51.227Z,48
2022-09-02T19:59:31.519Z,54
2022-09-02T20:05:11.915Z,56
2022-09-02T20:11:14.186Z,54
2022-09-02T20:17:00.639Z,48
2022-09-02T20:22:43.859Z,46
2022-09-02T20:34:04.969Z,58
2022-09-02T20:39:45.493Z,50
2022-09-02T20:45:27.416Z,56
2022-09-02T20:51:10.304Z,56
2022-09-02T20:56:50.530Z,46
2022-09-02T21:02:31.212Z,52
2022-09-02T21:08:11.882Z,52
2022-09-02T21:13:51.845Z,48
2022-09-02T21:19:32.668Z,50
2022-09-02T21:25:18.107Z,58
2022-09-02T21:30:59.567Z,58
2022-09-02T21:36:39.797Z,48
2022-09-02T21:42:19.946Z,54
2022-09-02T21:48:03.378Z,54
2022-09-02T21:53:50.212Z,60
2022-09-02T21:59:32.767Z,48
2022-09-02T22:05:12.835Z,54
2022-09-02T22:10:57.212Z,56
2022-09-02T22:16:38.076Z,46
2022-09-02T22:22:18.842Z,48
2022-09-02T22:27:58.907Z,58
2022-09-02T22:33:41.066Z,60
2022-09-02T22:39:21.959Z,50
2022-09-02T22:45:02.073Z,44
2022-09-02T22:50:42.139Z,56
2022-09-02T22:56:22.788Z,56
2022-09-02T23:02:03.378Z,46
2022-09-02T23:07:43.966Z,58
2022-09-02T23:13:24.242Z,58
2022-09-02T23:19:04.641Z,46
2022-09-02T23:24:45.359Z,54
2022-09-02T23:30:26.015Z,58
2022-09-02T23:36:10.625Z,54
2022-09-02T23:41:50.731Z,40
2022-09-02T23:47:31.043Z,46
2022-09-02T23:53:11.506Z,40
